Observation data for Haskell on 08/14/2020      Previous  Date  Next       Current Mesonet Observations  Soil Data  Daily Summary Page  Observations in Plain Language
KHA1 140500Z 17009KT 32/13 A2985 RMK A01 T03220125  RH  031%=      5-min Rain = 0
KHA1 140505Z 18009KT 32/13 A2985 RMK A01 T03220126  RH  031%=      5-min Rain = 0
KHA1 140510Z 18009KT 32/13 A2985 RMK A01 T03220127  RH  032%=      5-min Rain = 0
KHA1 140515Z 18009KT 32/13 A2985 RMK A01 T03200128  RH  032%=      5-min Rain = 0
KHA1 140520Z 18009G16KT 32/13 A2985 RMK A01 T03200129  RH  033%=      5-min Rain = 0
KHA1 140525Z 18008G13KT 32/13 A2985 RMK A01 T03180129  RH  033%=      5-min Rain = 0
KHA1 140530Z 18008G13KT 32/13 A2986 RMK A01 T03160130  RH  033%=      5-min Rain = 0
KHA1 140535Z 18008KT 31/13 A2986 RMK A01 T03140130  RH  034%=      5-min Rain = 0
KHA1 140540Z 18008KT 31/13 A2986 RMK A01 T03130131  RH  034%=      5-min Rain = 0
KHA1 140545Z 18009KT 31/13 A2986 RMK A01 T03130131  RH  034%=      5-min Rain = 0
KHA1 140550Z 18008KT 31/13 A2986 RMK A01 T03120131  RH  035%=      5-min Rain = 0
KHA1 140555Z 18008KT 31/13 A2986 RMK A01 T03110132  RH  035%=      5-min Rain = 0
KHA1 140600Z 19008KT 31/13 A2986 RMK A01 T03080132  RH  036%=      5-min Rain = 0
KHA1 140605Z 19009KT 31/13 A2986 RMK A01 T03080132  RH  036%=      5-min Rain = 0
KHA1 140610Z 19009KT 31/13 A2986 RMK A01 T03080132  RH  036%=      5-min Rain = 0
KHA1 140615Z 19009KT 31/13 A2986 RMK A01 T03070132  RH  036%=      5-min Rain = 0
KHA1 140620Z 19009KT 31/13 A2986 RMK A01 T03060132  RH  036%=      5-min Rain = 0
KHA1 140625Z 19009KT 31/13 A2986 RMK A01 T03060132  RH  036%=      5-min Rain = 0
KHA1 140630Z 19009KT 31/13 A2986 RMK A01 T03060132  RH  036%=      5-min Rain = 0
KHA1 140635Z 19008KT 31/13 A2986 RMK A01 T03050133  RH  036%=      5-min Rain = 0
KHA1 140640Z 19009KT 30/13 A2986 RMK A01 T03030133  RH  037%=      5-min Rain = 0
KHA1 140645Z 19008KT 30/13 A2986 RMK A01 T03010133  RH  037%=      5-min Rain = 0
KHA1 140650Z 19009KT 30/13 A2986 RMK A01 T02980134  RH  038%=      5-min Rain = 0
KHA1 140655Z 20009KT 30/13 A2986 RMK A01 T02970134  RH  038%=      5-min Rain = 0
KHA1 140700Z 20009KT 30/13 A2986 RMK A01 T02980134  RH  038%=      5-min Rain = 0
KHA1 140705Z 20009KT 30/13 A2986 RMK A01 T02970134  RH  038%=      5-min Rain = 0
KHA1 140710Z 20008KT 30/13 A2986 RMK A01 T02960134  RH  039%=      5-min Rain = 0
KHA1 140715Z 20008KT 29/13 A2986 RMK A01 T02930134  RH  039%=      5-min Rain = 0
KHA1 140720Z 20008KT 29/13 A2986 RMK A01 T02910134  RH  040%=      5-min Rain = 0
KHA1 140725Z 20007KT 29/13 A2986 RMK A01 T02890134  RH  040%=      5-min Rain = 0
KHA1 140730Z 20008KT 29/13 A2986 RMK A01 T02880134  RH  040%=      5-min Rain = 0
KHA1 140735Z 20007KT 29/13 A2986 RMK A01 T02870134  RH  041%=      5-min Rain = 0
KHA1 140740Z 20008KT 29/13 A2986 RMK A01 T02860134  RH  041%=      5-min Rain = 0
KHA1 140745Z 20007KT 29/14 A2986 RMK A01 T02870135  RH  041%=      5-min Rain = 0
KHA1 140750Z 19007KT 29/14 A2987 RMK A01 T02850135  RH  041%=      5-min Rain = 0
KHA1 140755Z 20007KT 28/14 A2987 RMK A01 T02830135  RH  042%=      5-min Rain = 0
KHA1 140800Z 19007KT 28/14 A2987 RMK A01 T02800135  RH  043%=      5-min Rain = 0
KHA1 140805Z 20006KT 28/14 A2987 RMK A01 T02770135  RH  043%=      5-min Rain = 0
KHA1 140810Z 20006KT 28/14 A2987 RMK A01 T02750136  RH  044%=      5-min Rain = 0
KHA1 140815Z 20007KT 28/14 A2987 RMK A01 T02750135  RH  044%=      5-min Rain = 0
KHA1 140820Z 19007KT 28/14 A2987 RMK A01 T02760135  RH  044%=      5-min Rain = 0
KHA1 140825Z 20007KT 28/14 A2987 RMK A01 T02760135  RH  044%=      5-min Rain = 0
KHA1 140830Z 20007KT 27/14 A2987 RMK A01 T02740135  RH  044%=      5-min Rain = 0
KHA1 140835Z 20007KT 27/14 A2987 RMK A01 T02710135  RH  045%=      5-min Rain = 0
KHA1 140840Z 20006KT 27/14 A2987 RMK A01 T02690136  RH  046%=      5-min Rain = 0
KHA1 140845Z 20006KT 27/14 A2987 RMK A01 T02650136  RH  047%=      5-min Rain = 0
KHA1 140850Z 20007KT 26/14 A2987 RMK A01 T02630135  RH  047%=      5-min Rain = 0
KHA1 140855Z 19006KT 26/14 A2987 RMK A01 T02630135  RH  047%=      5-min Rain = 0
KHA1 140900Z 19006KT 26/14 A2987 RMK A01 T02620135  RH  047%=      5-min Rain = 0
KHA1 140905Z 20007KT 26/14 A2987 RMK A01 T02610135  RH  048%=      5-min Rain = 0
KHA1 140910Z 20007KT 26/14 A2987 RMK A01 T02610135  RH  048%=      5-min Rain = 0
KHA1 140915Z 20008KT 26/14 A2986 RMK A01 T02620135  RH  047%=      5-min Rain = 0
KHA1 140920Z 20008KT 26/14 A2986 RMK A01 T02640135  RH  047%=      5-min Rain = 0
KHA1 140925Z 20008KT 27/14 A2986 RMK A01 T02650135  RH  046%=      5-min Rain = 0
KHA1 140930Z 20008KT 27/14 A2986 RMK A01 T02660135  RH  046%=      5-min Rain = 0
KHA1 140935Z 20008KT 27/14 A2986 RMK A01 T02660135  RH  046%=      5-min Rain = 0
KHA1 140940Z 20008KT 27/14 A2986 RMK A01 T02650135  RH  046%=      5-min Rain = 0
KHA1 140945Z 20009KT 27/14 A2986 RMK A01 T02660135  RH  046%=      5-min Rain = 0
KHA1 140950Z 20009KT 27/14 A2986 RMK A01 T02680135  RH  046%=      5-min Rain = 0
KHA1 140955Z 20009KT 27/14 A2986 RMK A01 T02680135  RH  046%=      5-min Rain = 0
KHA1 141000Z 20009KT 27/14 A2986 RMK A01 T02670135  RH  046%=      5-min Rain = 0
KHA1 141005Z 20009KT 27/14 A2986 RMK A01 T02670135  RH  046%=      5-min Rain = 0
KHA1 141010Z 20008KT 27/14 A2986 RMK A01 T02650135  RH  046%=      5-min Rain = 0
KHA1 141015Z 20008KT 26/14 A2986 RMK A01 T02640135  RH  047%=      5-min Rain = 0
KHA1 141020Z 20008KT 26/14 A2986 RMK A01 T02630135  RH  047%=      5-min Rain = 0
KHA1 141025Z 20008KT 26/14 A2986 RMK A01 T02620136  RH  048%=      5-min Rain = 0
KHA1 141030Z 20008KT 26/14 A2986 RMK A01 T02610136  RH  048%=      5-min Rain = 0
KHA1 141035Z 20008KT 26/14 A2986 RMK A01 T02590136  RH  048%=      5-min Rain = 0
KHA1 141040Z 20009KT 26/14 A2986 RMK A01 T02590136  RH  048%=      5-min Rain = 0
KHA1 141045Z 20008KT 26/14 A2986 RMK A01 T02600136  RH  048%=      5-min Rain = 0
KHA1 141050Z 20007KT 26/14 A2986 RMK A01 T02590137  RH  049%=      5-min Rain = 0
KHA1 141055Z 20006KT 26/14 A2987 RMK A01 T02550136  RH  050%=      5-min Rain = 0
KHA1 141100Z 20006KT 25/14 A2987 RMK A01 T02520136  RH  051%=      5-min Rain = 0
KHA1 141105Z 21006KT 25/14 A2987 RMK A01 T02470136  RH  052%=      5-min Rain = 0
KHA1 141110Z 21007KT 24/14 A2987 RMK A01 T02420137  RH  054%=      5-min Rain = 0
KHA1 141115Z 21007KT 24/14 A2987 RMK A01 T02410136  RH  054%=      5-min Rain = 0
KHA1 141120Z 21007KT 24/14 A2987 RMK A01 T02410136  RH  054%=      5-min Rain = 0
KHA1 141125Z 21008KT 24/14 A2987 RMK A01 T02420136  RH  054%=      5-min Rain = 0
KHA1 141130Z 20008KT 24/14 A2987 RMK A01 T02440136  RH  053%=      5-min Rain = 0
KHA1 141135Z 21007KT 25/14 A2987 RMK A01 T02450136  RH  053%=      5-min Rain = 0
KHA1 141140Z 21007KT 24/14 A2987 RMK A01 T02440136  RH  053%=      5-min Rain = 0
KHA1 141145Z 21007KT 24/14 A2988 RMK A01 T02420137  RH  054%=      5-min Rain = 0
KHA1 141150Z 21007KT 24/14 A2988 RMK A01 T02420137  RH  054%=      5-min Rain = 0
KHA1 141155Z 21007KT 24/14 A2988 RMK A01 T02400137  RH  055%=      5-min Rain = 0
KHA1 141200Z 23005KT 24/14 A2989 RMK A01 T02370137  RH  056%=      5-min Rain = 0
KHA1 141205Z 25005KT 23/14 A2989 RMK A01 T02340136  RH  056%=      5-min Rain = 0
KHA1 141210Z 25005KT 23/13 A2989 RMK A01 T02250134  RH  059%=      5-min Rain = 0
KHA1 141215Z 23005KT 22/14 A299 RMK A01 T02200135  RH  061%=      5-min Rain = 0
KHA1 141220Z 23005KT 22/14 A299 RMK A01 T02200138  RH  062%=      5-min Rain = 0
KHA1 141225Z 24004KT 22/14 A2991 RMK A01 T02230139  RH  061%=      5-min Rain = 0
KHA1 141230Z 24003KT 22/14 A2991 RMK A01 T02240140  RH  061%=      5-min Rain = 0
KHA1 141235Z 24003KT 23/14 A2991 RMK A01 T02280143  RH  061%=      5-min Rain = 0
KHA1 141240Z 23004KT 23/15 A2991 RMK A01 T02310147  RH  062%=      5-min Rain = 0
KHA1 141245Z 24004KT 23/15 A2991 RMK A01 T02320151  RH  063%=      5-min Rain = 0
KHA1 141250Z 23004KT 24/15 A2991 RMK A01 T02350152  RH  062%=      5-min Rain = 0
KHA1 141255Z 23004KT 24/15 A2991 RMK A01 T02380154  RH  062%=      5-min Rain = 0
KHA1 141300Z 22004KT 24/16 A2991 RMK A01 T02400155  RH  062%=      5-min Rain = 0
KHA1 141305Z 22004KT 24/16 A2992 RMK A01 T02440157  RH  061%=      5-min Rain = 0
KHA1 141310Z 21005KT 25/16 A2992 RMK A01 T02470157  RH  060%=      5-min Rain = 0
KHA1 141315Z 22005KT 25/16 A2992 RMK A01 T02510160  RH  060%=      5-min Rain = 0
KHA1 141320Z 22005KT 26/16 A2992 RMK A01 T02550160  RH  058%=      5-min Rain = 0
KHA1 141325Z 22005KT 26/16 A2992 RMK A01 T02600159  RH  056%=      5-min Rain = 0
KHA1 141330Z 22005KT 27/16 A2992 RMK A01 T02660157  RH  054%=      5-min Rain = 0
KHA1 141335Z 22005KT 27/16 A2992 RMK A01 T02700158  RH  053%=      5-min Rain = 0
KHA1 141340Z 22005KT 27/16 A2993 RMK A01 T02740162  RH  053%=      5-min Rain = 0
KHA1 141345Z 21005KT 28/16 A2993 RMK A01 T02770161  RH  051%=      5-min Rain = 0
KHA1 141350Z 21006KT 28/16 A2993 RMK A01 T02800161  RH  051%=      5-min Rain = 0
KHA1 141355Z 21005KT 28/17 A2993 RMK A01 T02840165  RH  051%=      5-min Rain = 0
KHA1 141400Z 21005KT 29/17 A2993 RMK A01 T02880167  RH  050%=      5-min Rain = 0
KHA1 141405Z 22004KT 29/17 A2993 RMK A01 T02920169  RH  050%=      5-min Rain = 0
KHA1 141410Z 24006KT 29/17 A2993 RMK A01 T02940166  RH  048%=      5-min Rain = 0
KHA1 141415Z 24007KT 30/16 A2993 RMK A01 T02980162  RH  046%=      5-min Rain = 0
KHA1 141420Z 24009G14KT 30/16 A2992 RMK A01 T03010157  RH  044%=      5-min Rain = 0
KHA1 141425Z 24009KT 30/16 A2992 RMK A01 T03030157  RH  043%=      5-min Rain = 0
KHA1 141430Z 23010KT 30/16 A2992 RMK A01 T03040157  RH  043%=      5-min Rain = 0
KHA1 141435Z 23010G15KT 31/16 A2992 RMK A01 T03050159  RH  043%=      5-min Rain = 0
KHA1 141440Z 24010G15KT 31/16 A2992 RMK A01 T03050162  RH  044%=      5-min Rain = 0
KHA1 141445Z 23011KT 31/16 A2992 RMK A01 T03060162  RH  044%=      5-min Rain = 0
KHA1 141450Z 22011KT 31/17 A2992 RMK A01 T03080165  RH  044%=      5-min Rain = 0
KHA1 141455Z 22011G17KT 31/17 A2992 RMK A01 T03090166  RH  044%=      5-min Rain = 0
KHA1 141500Z 22010KT 31/17 A2992 RMK A01 T03110166  RH  044%=      5-min Rain = 0
KHA1 141505Z 22011KT 31/17 A2992 RMK A01 T03130169  RH  044%=      5-min Rain = 0
KHA1 141510Z 22011KT 32/17 A2992 RMK A01 T03160169  RH  044%=      5-min Rain = 0
KHA1 141515Z 22011KT 32/17 A2992 RMK A01 T03170167  RH  043%=      5-min Rain = 0
KHA1 141520Z 22012G18KT 32/17 A2991 RMK A01 T03200165  RH  041%=      5-min Rain = 0
KHA1 141525Z 23012KT 32/17 A2991 RMK A01 T03230167  RH  041%=      5-min Rain = 0
KHA1 141530Z 22012G18KT 32/17 A2991 RMK A01 T03240169  RH  042%=      5-min Rain = 0
KHA1 141535Z 22013KT 33/17 A2991 RMK A01 T03250167  RH  041%=      5-min Rain = 0
KHA1 141540Z 23013G18KT 33/17 A2991 RMK A01 T03280166  RH  040%=      5-min Rain = 0
KHA1 141545Z 22014KT 33/17 A2991 RMK A01 T03290165  RH  040%=      5-min Rain = 0
KHA1 141550Z 22012G18KT 33/17 A2991 RMK A01 T03310169  RH  040%=      5-min Rain = 0
KHA1 141555Z 22013KT 33/17 A2991 RMK A01 T03340169  RH  039%=      5-min Rain = 0
KHA1 141600Z 22011KT 34/17 A2991 RMK A01 T03360171  RH  039%=      5-min Rain = 0
KHA1 141605Z 23013KT 34/17 A2991 RMK A01 T03390167  RH  038%=      5-min Rain = 0
KHA1 141610Z 23013G23KT 34/17 A2991 RMK A01 T03400165  RH  037%=      5-min Rain = 0
KHA1 141615Z 23015G20KT 34/17 A2991 RMK A01 T03420165  RH  037%=      5-min Rain = 0
KHA1 141620Z 23015G20KT 34/16 A2991 RMK A01 T03430164  RH  036%=      5-min Rain = 0
KHA1 141625Z 23014G19KT 35/17 A2991 RMK A01 T03450167  RH  037%=      5-min Rain = 0
KHA1 141630Z 24013G18KT 35/17 A2991 RMK A01 T03480165  RH  035%=      5-min Rain = 0
KHA1 141635Z 22013G20KT 35/17 A2991 RMK A01 T03500168  RH  036%=      5-min Rain = 0
KHA1 141640Z 23013KT 35/17 A2991 RMK A01 T03480168  RH  036%=      5-min Rain = 0
KHA1 141645Z 24012G18KT 35/17 A2991 RMK A01 T03520167  RH  035%=      5-min Rain = 0
KHA1 141650Z 23011G16KT 35/17 A2991 RMK A01 T03540173  RH  036%=      5-min Rain = 0
KHA1 141655Z 22012G18KT 36/17 A2991 RMK A01 T03550170  RH  035%=      5-min Rain = 0
KHA1 141700Z 24013KT 36/17 A2991 RMK A01 T03570168  RH  034%=      5-min Rain = 0
KHA1 141705Z 23012G20KT 36/17 A2991 RMK A01 T03590168  RH  034%=      5-min Rain = 0
KHA1 141710Z 24012G17KT 36/16 A2991 RMK A01 T03590160  RH  032%=      5-min Rain = 0
KHA1 141715Z 22011KT 36/17 A2991 RMK A01 T03590168  RH  034%=      5-min Rain = 0
KHA1 141720Z 24009KT 36/17 A2991 RMK A01 T03620167  RH  033%=      5-min Rain = 0
KHA1 141725Z 23010G15KT 36/17 A299 RMK A01 T03640167  RH  033%=      5-min Rain = 0
KHA1 141730Z 22010KT 37/17 A299 RMK A01 T03650174  RH  034%=      5-min Rain = 0
KHA1 141735Z 21013KT 37/17 A299 RMK A01 T03660170  RH  033%=      5-min Rain = 0
KHA1 141740Z 22011KT 37/17 A299 RMK A01 T03670169  RH  033%=      5-min Rain = 0
KHA1 141745Z 22011G18KT 37/17 A299 RMK A01 T03690172  RH  033%=      5-min Rain = 0
KHA1 141750Z 22008KT 37/17 A299 RMK A01 T03690171  RH  033%=      5-min Rain = 0
KHA1 141755Z 22010G16KT 37/17 A2989 RMK A01 T03730167  RH  031%=      5-min Rain = 0
KHA1 141800Z 21009G16KT 37/17 A2989 RMK A01 T03740170  RH  032%=      5-min Rain = 0
KHA1 141805Z 23008KT 38/17 A2989 RMK A01 T03750168  RH  031%=      5-min Rain = 0
KHA1 141810Z 23009KT 38/16 A2989 RMK A01 T03770163  RH  030%=      5-min Rain = 0
KHA1 141815Z 22008G13KT 38/16 A2989 RMK A01 T03780163  RH  030%=      5-min Rain = 0
KHA1 141820Z 20009KT 38/17 A2989 RMK A01 T03820169  RH  030%=      5-min Rain = 0
KHA1 141825Z 22008G13KT 38/16 A2989 RMK A01 T03830164  RH  029%=      5-min Rain = 0
KHA1 141830Z 21009G15KT 38/16 A2988 RMK A01 T03820163  RH  029%=      5-min Rain = 0
KHA1 141835Z 22009KT 38/17 A2988 RMK A01 T03830165  RH  029%=      5-min Rain = 0
KHA1 141840Z 22007G13KT 38/16 A2988 RMK A01 T03840163  RH  029%=      5-min Rain = 0
KHA1 141845Z 21008G14KT 39/16 A2988 RMK A01 T03880164  RH  028%=      5-min Rain = 0
KHA1 141850Z 20009G14KT 39/16 A2988 RMK A01 T03880157  RH  027%=      5-min Rain = 0
KHA1 141855Z 23008KT 39/15 A2988 RMK A01 T03880153  RH  026%=      5-min Rain = 0
KHA1 141900Z 24006KT 39/16 A2988 RMK A01 T03920158  RH  027%=      5-min Rain = 0
KHA1 141905Z 22010G15KT 39/16 A2987 RMK A01 T03920157  RH  026%=      5-min Rain = 0
KHA1 141910Z 22008KT 39/15 A2987 RMK A01 T03900151  RH  026%=      5-min Rain = 0
KHA1 141915Z 19007KT 40/14 A2987 RMK A01 T03960143  RH  024%=      5-min Rain = 0
KHA1 141920Z 22009KT 40/15 A2987 RMK A01 T03990149  RH  024%=      5-min Rain = 0
KHA1 141925Z 22009G14KT 39/15 A2986 RMK A01 T03940147  RH  024%=      5-min Rain = 0
KHA1 141930Z 20008KT 40/15 A2986 RMK A01 T03970148  RH  024%=      5-min Rain = 0
KHA1 141935Z 22009KT 40/14 A2986 RMK A01 T03990143  RH  023%=      5-min Rain = 0
KHA1 141940Z 25007G13KT 40/14 A2986 RMK A01 T03990143  RH  023%=      5-min Rain = 0
KHA1 141945Z 20006KT 40/15 A2986 RMK A01 T04020151  RH  024%=      5-min Rain = 0
KHA1 141950Z 19008KT 41/14 A2985 RMK A01 T04070142  RH  022%=      5-min Rain = 0
KHA1 141955Z 21009KT 40/14 A2985 RMK A01 T04030144  RH  023%=      5-min Rain = 0
KHA1 142000Z 22003G8KT 40/14 A2985 RMK A01 T04040141  RH  022%=      5-min Rain = 0
KHA1 142005Z 24001KT 42/14 A2984 RMK A01 T04150137  RH  020%=      5-min Rain = 0
KHA1 142010Z 21002KT 42/14 A2984 RMK A01 T04170142  RH  021%=      5-min Rain = 0
KHA1 142015Z 20002KT 42/15 A2984 RMK A01 T04180147  RH  022%=      5-min Rain = 0
KHA1 142020Z 24006G11KT 41/16 A2984 RMK A01 T04140155  RH  023%=      5-min Rain = 0
KHA1 142025Z 25007KT 41/14 A2983 RMK A01 T04070144  RH  022%=      5-min Rain = 0
KHA1 142030Z 24007G12KT 41/14 A2983 RMK A01 T04080143  RH  022%=      5-min Rain = 0
KHA1 142035Z 22004KT 41/15 A2982 RMK A01 T04080149  RH  023%=      5-min Rain = 0
KHA1 142040Z 23006KT 41/16 A2982 RMK A01 T04110155  RH  024%=      5-min Rain = 0
KHA1 142045Z 24004KT 41/13 A2982 RMK A01 T04110128  RH  020%=      5-min Rain = 0
KHA1 142050Z 29005KT 42/13 A2982 RMK A01 T04180126  RH  019%=      5-min Rain = 0
KHA1 142055Z 24002KT 42/12 A2981 RMK A01 T04230118  RH  017%=      5-min Rain = 0
KHA1 142100Z 20002KT 43/13 A2981 RMK A01 T04250130  RH  018%=      5-min Rain = 0
KHA1 142105Z 21004G10KT 43/15 A298 RMK A01 T04250150  RH  021%=      5-min Rain = 0
KHA1 142110Z 19008KT 42/14 A298 RMK A01 T04170136  RH  020%=      5-min Rain = 0
KHA1 142115Z 20008G14KT 41/14 A298 RMK A01 T04140142  RH  021%=      5-min Rain = 0
KHA1 142120Z 22004KT 42/14 A298 RMK A01 T04150141  RH  021%=      5-min Rain = 0
KHA1 142125Z 19005KT 42/14 A298 RMK A01 T04190144  RH  021%=      5-min Rain = 0
KHA1 142130Z 19003KT 42/16 A2979 RMK A01 T04160160  RH  024%=      5-min Rain = 0
KHA1 142135Z 19003KT 42/13 A2979 RMK A01 T04190132  RH  019%=      5-min Rain = 0
KHA1 142140Z 26001KT 43/11 A2979 RMK A01 T04270114  RH  017%=      5-min Rain = 0
KHA1 142145Z 17003KT 43/14 A2979 RMK A01 T04270139  RH  020%=      5-min Rain = 0
KHA1 142150Z 20004KT 43/13 A2979 RMK A01 T04280132  RH  018%=      5-min Rain = 0
KHA1 142155Z 21007KT 41/15 A2979 RMK A01 T04130150  RH  023%=      5-min Rain = 0
KHA1 142200Z 21003KT 41/16 A2978 RMK A01 T04100162  RH  025%=      5-min Rain = 0
KHA1 142205Z 29000KT 42/12 A2978 RMK A01 T04220123  RH  018%=      5-min Rain = 0
KHA1 142210Z 12004KT 43/12 A2978 RMK A01 T04270124  RH  018%=      5-min Rain = 0
KHA1 142215Z 06005KT 43/11 A2978 RMK A01 T04290108  RH  016%=      5-min Rain = 0
KHA1 142220Z 06003KT 43/12 A2978 RMK A01 T04330115  RH  016%=      5-min Rain = 0
KHA1 142225Z 08005KT 44/11 A2978 RMK A01 T04350112  RH  015%=      5-min Rain = 0
KHA1 142230Z 17003KT 43/12 A2978 RMK A01 T04300123  RH  017%=      5-min Rain = 0
KHA1 142235Z 20005KT 42/15 A2978 RMK A01 T04150149  RH  022%=      5-min Rain = 0
KHA1 142240Z 22007KT 40/16 A2978 RMK A01 T04010160  RH  026%=      5-min Rain = 0
KHA1 142245Z 22006KT 40/15 A2978 RMK A01 T04010150  RH  024%=      5-min Rain = 0
KHA1 142250Z 25006KT 40/15 A2978 RMK A01 T04030151  RH  024%=      5-min Rain = 0
KHA1 142255Z 23003KT 41/14 A2978 RMK A01 T04080140  RH  022%=      5-min Rain = 0
KHA1 142300Z 20003KT 41/11 A2978 RMK A01 T04110114  RH  018%=      5-min Rain = 0
KHA1 142305Z 15000KT 42/12 A2978 RMK A01 T04240121  RH  018%=      5-min Rain = 0
KHA1 142310Z 06001G6KT 43/11 A2978 RMK A01 T04290113  RH  016%=      5-min Rain = 0
KHA1 142315Z 07003KT 43/11 A2978 RMK A01 T04310110  RH  016%=      5-min Rain = 0
KHA1 142320Z 04004G10KT 43/11 A2978 RMK A01 T04260110  RH  016%=      5-min Rain = 0
KHA1 142325Z 04003KT 42/11 A2978 RMK A01 T04220109  RH  016%=      5-min Rain = 0
KHA1 142330Z 04002KT 42/11 A2978 RMK A01 T04210110  RH  016%=      5-min Rain = 0
KHA1 142335Z 04002KT 42/11 A2978 RMK A01 T04200108  RH  016%=      5-min Rain = 0
KHA1 142340Z 02002KT 42/11 A2978 RMK A01 T04170109  RH  017%=      5-min Rain = 0
KHA1 142345Z 05001KT 42/11 A2978 RMK A01 T04150113  RH  017%=      5-min Rain = 0
KHA1 142350Z 10001KT 41/12 A2978 RMK A01 T04130121  RH  019%=      5-min Rain = 0
KHA1 142355Z 10002KT 41/13 A2978 RMK A01 T04080129  RH  020%=      5-min Rain = 0
KHA1 150000Z 10002KT 40/13 A2978 RMK A01 T04030128  RH  021%=      5-min Rain = 0
KHA1 150005Z 10002KT 40/13 A2978 RMK A01 T03970126  RH  021%=      5-min Rain = 0
KHA1 150010Z 08002KT 39/14 A2978 RMK A01 T03920137  RH  023%=      5-min Rain = 0
KHA1 150015Z 07003KT 39/14 A2978 RMK A01 T03900137  RH  023%=      5-min Rain = 0
KHA1 150020Z 06003KT 39/12 A2978 RMK A01 T03940115  RH  020%=      5-min Rain = 0
KHA1 150025Z 06003KT 40/11 A2978 RMK A01 T04000112  RH  019%=      5-min Rain = 0
KHA1 150030Z 09003KT 40/12 A2979 RMK A01 T03970124  RH  021%=      5-min Rain = 0
KHA1 150035Z 09003KT 38/14 A2979 RMK A01 T03840139  RH  024%=      5-min Rain = 0
KHA1 150040Z 07003KT 38/13 A2979 RMK A01 T03840125  RH  022%=      5-min Rain = 0
KHA1 150045Z 33014G25KT 37/14 A2981 RMK A01 T03700143  RH  027%=      5-min Rain = 0
KHA1 150050Z 35019G24KT 36/13 A2982 RMK A01 T03580130  RH  026%=      5-min Rain = 0
KHA1 150055Z 35014G22KT 36/13 A2983 RMK A01 T03560130  RH  027%=      5-min Rain = 0
KHA1 150100Z 35013G19KT 35/13 A2983 RMK A01 T03540129  RH  027%=      5-min Rain = 0
KHA1 150105Z 35015G23KT 35/13 A2983 RMK A01 T03540129  RH  027%=      5-min Rain = 0
KHA1 150110Z 34015G22KT 35/13 A2983 RMK A01 T03540129  RH  027%=      5-min Rain = 0
KHA1 150115Z 34017G24KT 35/13 A2983 RMK A01 T03530130  RH  027%=      5-min Rain = 0
KHA1 150120Z 34017G24KT 35/13 A2984 RMK A01 T03530129  RH  027%=      5-min Rain = 0
KHA1 150125Z 33017G24KT 35/13 A2984 RMK A01 T03520129  RH  027%=      5-min Rain = 0
KHA1 150130Z 32015G21KT 35/13 A2986 RMK A01 T03500129  RH  028%=      5-min Rain = 0
KHA1 150135Z 30014G19KT 35/13 A2987 RMK A01 T03470130  RH  028%=      5-min Rain = 0
KHA1 150140Z 30012G20KT 35/13 A2987 RMK A01 T03470128  RH  028%=      5-min Rain = 0
KHA1 150145Z 30012G17KT 35/13 A2987 RMK A01 T03470128  RH  028%=      5-min Rain = 0
KHA1 150150Z 31011G16KT 35/13 A2987 RMK A01 T03470125  RH  027%=      5-min Rain = 0
KHA1 150155Z 31013KT 35/12 A2987 RMK A01 T03490123  RH  027%=      5-min Rain = 0
KHA1 150200Z 31011KT 34/14 A2987 RMK A01 T03410138  RH  031%=      5-min Rain = 0
KHA1 150205Z 30010G15KT 33/14 A2987 RMK A01 T03280143  RH  034%=      5-min Rain = 0
KHA1 150210Z 30009KT 33/14 A2987 RMK A01 T03280144  RH  035%=      5-min Rain = 0
KHA1 150215Z 30007KT 32/15 A2987 RMK A01 T03220148  RH  037%=      5-min Rain = 0
KHA1 150220Z 29008KT 32/15 A2987 RMK A01 T03210146  RH  036%=      5-min Rain = 0
KHA1 150225Z 28008KT 33/14 A2987 RMK A01 T03260141  RH  034%=      5-min Rain = 0
KHA1 150230Z 27007G12KT 33/14 A2988 RMK A01 T03280141  RH  034%=      5-min Rain = 0
KHA1 150235Z 26005KT 32/15 A2988 RMK A01 T03200147  RH  037%=      5-min Rain = 0
KHA1 150240Z 28009G15KT 33/13 A2988 RMK A01 T03260130  RH  032%=      5-min Rain = 0
KHA1 150245Z 28010KT 34/12 A2988 RMK A01 T03360124  RH  029%=      5-min Rain = 0
KHA1 150250Z 28011KT 34/12 A2987 RMK A01 T03360124  RH  029%=      5-min Rain = 0
KHA1 150255Z 26011G16KT 34/12 A2986 RMK A01 T03360123  RH  029%=      5-min Rain = 0
KHA1 150300Z 25013G18KT 34/12 A2986 RMK A01 T03370122  RH  028%=      5-min Rain = 0
KHA1 150305Z 25014G21KT 34/12 A2986 RMK A01 T03420120  RH  027%=      5-min Rain = 0
KHA1 150310Z 25013KT 34/12 A2986 RMK A01 T03420121  RH  027%=      5-min Rain = 0
KHA1 150315Z 25011KT 34/12 A2986 RMK A01 T03400123  RH  028%=      5-min Rain = 0
KHA1 150320Z 25009KT 34/13 A2986 RMK A01 T03360126  RH  029%=      5-min Rain = 0
KHA1 150325Z 27007KT 33/13 A2986 RMK A01 T03320128  RH  030%=      5-min Rain = 0
KHA1 150330Z 29005KT 33/13 A2986 RMK A01 T03280129  RH  031%=      5-min Rain = 0
KHA1 150335Z 30008KT 33/12 A2986 RMK A01 T03320123  RH  029%=      5-min Rain = 0
KHA1 150340Z 30007KT 34/12 A2986 RMK A01 T03350123  RH  029%=      5-min Rain = 0
KHA1 150345Z 32007KT 33/12 A2986 RMK A01 T03330122  RH  029%=      5-min Rain = 0
KHA1 150350Z 31005KT 33/12 A2986 RMK A01 T03330121  RH  029%=      5-min Rain = 0
KHA1 150355Z 29006KT 33/12 A2986 RMK A01 T03320122  RH  029%=      5-min Rain = 0
KHA1 150400Z 28007KT 34/12 A2986 RMK A01 T03360118  RH  028%=      5-min Rain = 0
KHA1 150405Z 30006KT 34/12 A2986 RMK A01 T03370120  RH  028%=      5-min Rain = 0
KHA1 150410Z 30004KT 33/12 A2987 RMK A01 T03300124  RH  030%=      5-min Rain = 0
KHA1 150415Z 28004KT 33/12 A2986 RMK A01 T03270124  RH  030%=      5-min Rain = 0
KHA1 150420Z 30003KT 33/12 A2986 RMK A01 T03280124  RH  030%=      5-min Rain = 0
KHA1 150425Z 35003KT 32/12 A2987 RMK A01 T03210124  RH  031%=      5-min Rain = 0
KHA1 150430Z 00007G12KT 32/13 A2988 RMK A01 T03160127  RH  033%=      5-min Rain = 0
KHA1 150435Z 02009KT 32/12 A2988 RMK A01 T03160122  RH  032%=      5-min Rain = 0
KHA1 150440Z 03014KT 33/12 A2988 RMK A01 T03260116  RH  029%=      5-min Rain = 0
KHA1 150445Z 03010KT 33/11 A2988 RMK A01 T03330114  RH  027%=      5-min Rain = 0
KHA1 150450Z 01005KT 34/12 A2988 RMK A01 T03350116  RH  027%=      5-min Rain = 0
KHA1 150455Z 02004KT 33/12 A2988 RMK A01 T03320117  RH  028%=      5-min Rain = 0

Page generated in 0.0092 seconds.